sensor_id;sensor_type;location;lat;lon;timestamp;temperature;humidity
14061;DHT22;7105;43.616;1.434;2022-08-21T00:01:05;23.00;99.90
14061;DHT22;7105;43.616;1.434;2022-08-21T00:03:32;23.00;99.90
14061;DHT22;7105;43.616;1.434;2022-08-21T00:05:58;22.90;99.90
14061;DHT22;7105;43.616;1.434;2022-08-21T00:08:24;23.00;99.90
14061;DHT22;7105;43.616;1.434;2022-08-21T00:10:50;23.00;99.90
14061;DHT22;7105;43.616;1.434;2022-08-21T00:13:17;23.00;99.90
14061;DHT22;7105;43.616;1.434;2022-08-21T00:15:43;23.00;99.90
14061;DHT22;7105;43.616;1.434;2022-08-21T00:18:10;22.90;99.90
14061;DHT22;7105;43.616;1.434;2022-08-21T00:20:37;22.80;99.90
14061;DHT22;7105;43.616;1.434;2022-08-21T00:23:03;22.90;99.90
14061;DHT22;7105;43.616;1.434;2022-08-21T00:25:30;22.90;99.90
14061;DHT22;7105;43.616;1.434;2022-08-21T00:27:56;22.80;99.90
14061;DHT22;7105;43.616;1.434;2022-08-21T00:30:24;22.80;99.90
14061;DHT22;7105;43.616;1.434;2022-08-21T00:32:51;22.90;99.90
14061;DHT22;7105;43.616;1.434;2022-08-21T00:35:21;23.00;99.90
14061;DHT22;7105;43.616;1.434;2022-08-21T00:37:48;23.00;99.90
14061;DHT22;7105;43.616;1.434;2022-08-21T00:40:16;23.00;99.90
14061;DHT22;7105;43.616;1.434;2022-08-21T00:42:42;23.00;99.90
14061;DHT22;7105;43.616;1.434;2022-08-21T00:45:10;23.00;99.90
14061;DHT22;7105;43.616;1.434;2022-08-21T00:47:36;23.00;99.90
14061;DHT22;7105;43.616;1.434;2022-08-21T00:50:05;23.00;99.90
14061;DHT22;7105;43.616;1.434;2022-08-21T00:52:33;22.80;99.90
14061;DHT22;7105;43.616;1.434;2022-08-21T00:55:00;22.90;99.90
14061;DHT22;7105;43.616;1.434;2022-08-21T00:57:33;22.90;99.90
14061;DHT22;7105;43.616;1.434;2022-08-21T01:00:02;22.90;99.90
14061;DHT22;7105;43.616;1.434;2022-08-21T01:02:29;22.90;99.90
14061;DHT22;7105;43.616;1.434;2022-08-21T01:04:54;23.00;99.90
14061;DHT22;7105;43.616;1.434;2022-08-21T01:07:20;22.90;99.90
14061;DHT22;7105;43.616;1.434;2022-08-21T01:09:47;22.80;99.90
14061;DHT22;7105;43.616;1.434;2022-08-21T01:12:13;22.70;99.90
14061;DHT22;7105;43.616;1.434;2022-08-21T01:14:40;22.80;99.90
14061;DHT22;7105;43.616;1.434;2022-08-21T01:17:10;22.80;99.90
14061;DHT22;7105;43.616;1.434;2022-08-21T01:19:36;22.70;99.90
14061;DHT22;7105;43.616;1.434;2022-08-21T01:22:02;22.80;99.90
14061;DHT22;7105;43.616;1.434;2022-08-21T01:24:28;22.90;99.90
14061;DHT22;7105;43.616;1.434;2022-08-21T01:26:54;23.00;99.90
14061;DHT22;7105;43.616;1.434;2022-08-21T01:29:41;22.90;99.90
14061;DHT22;7105;43.616;1.434;2022-08-21T01:32:12;22.90;99.90
14061;DHT22;7105;43.616;1.434;2022-08-21T01:34:42;22.80;99.90
14061;DHT22;7105;43.616;1.434;2022-08-21T01:37:08;22.70;99.90
14061;DHT22;7105;43.616;1.434;2022-08-21T01:39:35;22.70;99.90
14061;DHT22;7105;43.616;1.434;2022-08-21T01:42:00;22.80;99.90
14061;DHT22;7105;43.616;1.434;2022-08-21T01:44:27;22.90;99.90
14061;DHT22;7105;43.616;1.434;2022-08-21T01:46:52;22.90;99.90
14061;DHT22;7105;43.616;1.434;2022-08-21T01:49:19;22.80;99.90
14061;DHT22;7105;43.616;1.434;2022-08-21T01:51:45;22.70;99.90
14061;DHT22;7105;43.616;1.434;2022-08-21T01:54:11;22.70;99.90
14061;DHT22;7105;43.616;1.434;2022-08-21T01:56:42;22.70;99.90
14061;DHT22;7105;43.616;1.434;2022-08-21T01:59:09;22.70;99.90
14061;DHT22;7105;43.616;1.434;2022-08-21T02:01:36;22.70;99.90
14061;DHT22;7105;43.616;1.434;2022-08-21T02:04:02;22.80;99.90
14061;DHT22;7105;43.616;1.434;2022-08-21T02:06:28;22.80;99.90
14061;DHT22;7105;43.616;1.434;2022-08-21T02:08:54;22.70;99.90
14061;DHT22;7105;43.616;1.434;2022-08-21T02:11:20;22.70;99.90
14061;DHT22;7105;43.616;1.434;2022-08-21T02:13:45;22.80;99.90
14061;DHT22;7105;43.616;1.434;2022-08-21T02:16:12;22.70;99.90
14061;DHT22;7105;43.616;1.434;2022-08-21T02:18:38;22.70;99.90
14061;DHT22;7105;43.616;1.434;2022-08-21T02:21:04;22.70;99.90
14061;DHT22;7105;43.616;1.434;2022-08-21T02:23:30;22.70;99.90
14061;DHT22;7105;43.616;1.434;2022-08-21T02:26:02;22.60;99.90
14061;DHT22;7105;43.616;1.434;2022-08-21T02:28:28;22.60;99.90
14061;DHT22;7105;43.616;1.434;2022-08-21T02:30:55;22.50;99.90
14061;DHT22;7105;43.616;1.434;2022-08-21T02:33:21;22.50;99.90
14061;DHT22;7105;43.616;1.434;2022-08-21T02:35:47;22.50;99.90
14061;DHT22;7105;43.616;1.434;2022-08-21T02:38:17;22.50;99.90
14061;DHT22;7105;43.616;1.434;2022-08-21T02:40:47;22.50;99.90
14061;DHT22;7105;43.616;1.434;2022-08-21T02:43:14;22.60;99.90
14061;DHT22;7105;43.616;1.434;2022-08-21T02:45:40;22.40;99.90
14061;DHT22;7105;43.616;1.434;2022-08-21T02:48:11;22.40;99.90
14061;DHT22;7105;43.616;1.434;2022-08-21T02:50:44;22.30;99.90
14061;DHT22;7105;43.616;1.434;2022-08-21T02:53:12;22.30;99.90
14061;DHT22;7105;43.616;1.434;2022-08-21T02:55:44;22.20;99.90
14061;DHT22;7105;43.616;1.434;2022-08-21T02:58:10;22.10;99.90
14061;DHT22;7105;43.616;1.434;2022-08-21T03:00:37;21.90;99.90
14061;DHT22;7105;43.616;1.434;2022-08-21T03:03:04;22.00;99.90
14061;DHT22;7105;43.616;1.434;2022-08-21T03:05:31;22.10;99.90
14061;DHT22;7105;43.616;1.434;2022-08-21T03:07:58;21.90;99.90
14061;DHT22;7105;43.616;1.434;2022-08-21T03:10:25;21.80;99.90
14061;DHT22;7105;43.616;1.434;2022-08-21T03:12:51;21.80;99.90
14061;DHT22;7105;43.616;1.434;2022-08-21T03:15:19;21.90;99.90
14061;DHT22;7105;43.616;1.434;2022-08-21T03:17:46;22.00;99.90
14061;DHT22;7105;43.616;1.434;2022-08-21T03:20:15;21.90;99.90
14061;DHT22;7105;43.616;1.434;2022-08-21T03:22:41;22.00;99.90
14061;DHT22;7105;43.616;1.434;2022-08-21T03:25:07;22.00;99.90
14061;DHT22;7105;43.616;1.434;2022-08-21T03:27:34;22.00;99.90
14061;DHT22;7105;43.616;1.434;2022-08-21T03:30:01;21.90;99.90
14061;DHT22;7105;43.616;1.434;2022-08-21T03:32:27;21.90;99.90
14061;DHT22;7105;43.616;1.434;2022-08-21T03:34:54;22.00;99.90
14061;DHT22;7105;43.616;1.434;2022-08-21T03:37:20;22.00;99.90
14061;DHT22;7105;43.616;1.434;2022-08-21T03:39:45;22.00;99.90
14061;DHT22;7105;43.616;1.434;2022-08-21T03:42:11;22.10;99.90
14061;DHT22;7105;43.616;1.434;2022-08-21T03:44:37;22.20;99.90
14061;DHT22;7105;43.616;1.434;2022-08-21T03:47:05;22.20;99.90
14061;DHT22;7105;43.616;1.434;2022-08-21T03:49:31;22.00;99.90
14061;DHT22;7105;43.616;1.434;2022-08-21T03:51:57;22.10;99.90
14061;DHT22;7105;43.616;1.434;2022-08-21T03:54:22;22.10;99.90
14061;DHT22;7105;43.616;1.434;2022-08-21T03:56:48;22.20;99.90
14061;DHT22;7105;43.616;1.434;2022-08-21T03:59:14;22.20;99.90
14061;DHT22;7105;43.616;1.434;2022-08-21T04:01:51;22.10;99.90
14061;DHT22;7105;43.616;1.434;2022-08-21T04:04:17;22.10;99.90
14061;DHT22;7105;43.616;1.434;2022-08-21T04:06:42;22.00;99.90
14061;DHT22;7105;43.616;1.434;2022-08-21T04:09:08;22.10;99.90
14061;DHT22;7105;43.616;1.434;2022-08-21T04:11:34;22.10;99.90
14061;DHT22;7105;43.616;1.434;2022-08-21T04:13:59;22.00;99.90
14061;DHT22;7105;43.616;1.434;2022-08-21T04:16:25;22.00;99.90
14061;DHT22;7105;43.616;1.434;2022-08-21T04:18:51;21.90;99.90
14061;DHT22;7105;43.616;1.434;2022-08-21T04:21:16;21.90;99.90
14061;DHT22;7105;43.616;1.434;2022-08-21T04:23:42;21.80;99.90
14061;DHT22;7105;43.616;1.434;2022-08-21T04:26:08;21.80;99.90
14061;DHT22;7105;43.616;1.434;2022-08-21T04:28:33;21.80;99.90
14061;DHT22;7105;43.616;1.434;2022-08-21T04:30:59;21.80;99.90
14061;DHT22;7105;43.616;1.434;2022-08-21T04:33:25;21.80;99.90
14061;DHT22;7105;43.616;1.434;2022-08-21T04:35:51;21.60;99.90
14061;DHT22;7105;43.616;1.434;2022-08-21T04:38:17;21.60;99.90
14061;DHT22;7105;43.616;1.434;2022-08-21T04:40:43;21.70;99.90
14061;DHT22;7105;43.616;1.434;2022-08-21T04:43:10;21.60;99.90
14061;DHT22;7105;43.616;1.434;2022-08-21T04:45:39;21.70;99.90
14061;DHT22;7105;43.616;1.434;2022-08-21T04:48:07;21.80;99.90
14061;DHT22;7105;43.616;1.434;2022-08-21T04:50:52;21.70;99.90
14061;DHT22;7105;43.616;1.434;2022-08-21T04:55:46;21.80;99.90
14061;DHT22;7105;43.616;1.434;2022-08-21T04:58:15;21.90;99.90
14061;DHT22;7105;43.616;1.434;2022-08-21T05:00:42;21.90;99.90
14061;DHT22;7105;43.616;1.434;2022-08-21T05:03:09;21.90;99.90
14061;DHT22;7105;43.616;1.434;2022-08-21T05:05:36;21.90;99.90
14061;DHT22;7105;43.616;1.434;2022-08-21T05:08:03;22.00;99.90
14061;DHT22;7105;43.616;1.434;2022-08-21T05:10:29;21.90;99.90
14061;DHT22;7105;43.616;1.434;2022-08-21T05:12:57;21.90;99.90
14061;DHT22;7105;43.616;1.434;2022-08-21T05:15:23;21.90;99.90
14061;DHT22;7105;43.616;1.434;2022-08-21T05:17:48;21.80;99.90
14061;DHT22;7105;43.616;1.434;2022-08-21T05:20:15;21.70;99.90
14061;DHT22;7105;43.616;1.434;2022-08-21T05:22:41;21.70;99.90
14061;DHT22;7105;43.616;1.434;2022-08-21T05:25:09;21.60;99.90
14061;DHT22;7105;43.616;1.434;2022-08-21T05:27:35;21.70;99.90
14061;DHT22;7105;43.616;1.434;2022-08-21T05:30:02;21.80;99.90
14061;DHT22;7105;43.616;1.434;2022-08-21T05:32:28;21.80;99.90
14061;DHT22;7105;43.616;1.434;2022-08-21T05:34:54;21.90;99.90
14061;DHT22;7105;43.616;1.434;2022-08-21T05:37:20;22.10;99.90
14061;DHT22;7105;43.616;1.434;2022-08-21T05:39:46;22.30;99.90
14061;DHT22;7105;43.616;1.434;2022-08-21T05:42:12;22.40;99.90
14061;DHT22;7105;43.616;1.434;2022-08-21T05:44:38;22.40;99.90
14061;DHT22;7105;43.616;1.434;2022-08-21T05:47:08;22.40;99.90
14061;DHT22;7105;43.616;1.434;2022-08-21T05:49:34;22.40;99.90
14061;DHT22;7105;43.616;1.434;2022-08-21T05:52:00;22.60;99.90
14061;DHT22;7105;43.616;1.434;2022-08-21T05:54:27;22.50;99.90
14061;DHT22;7105;43.616;1.434;2022-08-21T05:56:52;23.00;99.90
14061;DHT22;7105;43.616;1.434;2022-08-21T05:59:18;23.20;99.90
14061;DHT22;7105;43.616;1.434;2022-08-21T06:01:44;23.50;99.90
14061;DHT22;7105;43.616;1.434;2022-08-21T06:04:11;23.60;99.90
14061;DHT22;7105;43.616;1.434;2022-08-21T06:06:37;23.60;99.90
14061;DHT22;7105;43.616;1.434;2022-08-21T06:09:04;23.30;99.90
14061;DHT22;7105;43.616;1.434;2022-08-21T06:11:31;23.60;99.90
14061;DHT22;7105;43.616;1.434;2022-08-21T06:13:57;23.30;99.90
14061;DHT22;7105;43.616;1.434;2022-08-21T06:16:24;23.50;99.90
14061;DHT22;7105;43.616;1.434;2022-08-21T06:18:49;23.50;99.90
14061;DHT22;7105;43.616;1.434;2022-08-21T06:21:15;23.40;99.90
14061;DHT22;7105;43.616;1.434;2022-08-21T06:23:41;23.30;99.90
14061;DHT22;7105;43.616;1.434;2022-08-21T06:26:08;23.70;99.90
14061;DHT22;7105;43.616;1.434;2022-08-21T06:28:35;24.40;99.90
14061;DHT22;7105;43.616;1.434;2022-08-21T06:31:01;26.30;99.90
14061;DHT22;7105;43.616;1.434;2022-08-21T06:33:27;27.10;99.90
14061;DHT22;7105;43.616;1.434;2022-08-21T06:35:52;27.80;99.90
14061;DHT22;7105;43.616;1.434;2022-08-21T06:38:18;30.60;99.90
14061;DHT22;7105;43.616;1.434;2022-08-21T06:40:45;32.30;99.90
14061;DHT22;7105;43.616;1.434;2022-08-21T06:43:13;32.80;99.90
14061;DHT22;7105;43.616;1.434;2022-08-21T06:45:39;31.50;99.90
14061;DHT22;7105;43.616;1.434;2022-08-21T06:48:05;30.40;99.90
14061;DHT22;7105;43.616;1.434;2022-08-21T06:50:33;31.60;99.90
14061;DHT22;7105;43.616;1.434;2022-08-21T06:53:10;32.90;99.90
14061;DHT22;7105;43.616;1.434;2022-08-21T06:55:37;33.80;99.90
14061;DHT22;7105;43.616;1.434;2022-08-21T06:58:04;34.30;99.90
14061;DHT22;7105;43.616;1.434;2022-08-21T07:00:30;35.40;99.90
14061;DHT22;7105;43.616;1.434;2022-08-21T07:02:56;35.70;99.90
14061;DHT22;7105;43.616;1.434;2022-08-21T07:05:25;34.50;99.90
14061;DHT22;7105;43.616;1.434;2022-08-21T07:07:51;34.60;99.90
14061;DHT22;7105;43.616;1.434;2022-08-21T07:10:17;30.40;99.90
14061;DHT22;7105;43.616;1.434;2022-08-21T07:12:43;32.60;99.90
14061;DHT22;7105;43.616;1.434;2022-08-21T07:15:09;33.40;99.90
14061;DHT22;7105;43.616;1.434;2022-08-21T07:17:35;34.60;99.90
14061;DHT22;7105;43.616;1.434;2022-08-21T07:20:01;34.00;99.90
14061;DHT22;7105;43.616;1.434;2022-08-21T07:22:26;34.80;99.90
14061;DHT22;7105;43.616;1.434;2022-08-21T07:24:54;36.30;99.90
14061;DHT22;7105;43.616;1.434;2022-08-21T07:27:20;34.20;99.90
14061;DHT22;7105;43.616;1.434;2022-08-21T07:29:45;35.50;99.90
14061;DHT22;7105;43.616;1.434;2022-08-21T07:32:11;36.40;99.90
14061;DHT22;7105;43.616;1.434;2022-08-21T07:34:36;33.00;99.90
14061;DHT22;7105;43.616;1.434;2022-08-21T07:37:02;31.40;99.90
14061;DHT22;7105;43.616;1.434;2022-08-21T07:39:29;30.80;99.90
14061;DHT22;7105;43.616;1.434;2022-08-21T07:41:54;30.20;99.90
14061;DHT22;7105;43.616;1.434;2022-08-21T07:44:20;31.50;99.90
14061;DHT22;7105;43.616;1.434;2022-08-21T07:46:45;31.60;99.90
14061;DHT22;7105;43.616;1.434;2022-08-21T07:49:11;34.70;99.90
14061;DHT22;7105;43.616;1.434;2022-08-21T07:51:37;35.80;99.90
14061;DHT22;7105;43.616;1.434;2022-08-21T07:54:02;34.20;99.90
14061;DHT22;7105;43.616;1.434;2022-08-21T07:56:30;32.30;99.90
14061;DHT22;7105;43.616;1.434;2022-08-21T07:58:56;32.30;99.90
14061;DHT22;7105;43.616;1.434;2022-08-21T08:01:23;33.00;99.90
14061;DHT22;7105;43.616;1.434;2022-08-21T08:03:49;34.10;99.90
14061;DHT22;7105;43.616;1.434;2022-08-21T08:06:15;35.60;99.90
14061;DHT22;7105;43.616;1.434;2022-08-21T08:08:43;34.30;99.90
14061;DHT22;7105;43.616;1.434;2022-08-21T08:11:10;33.70;99.90
14061;DHT22;7105;43.616;1.434;2022-08-21T08:13:45;35.30;99.90
14061;DHT22;7105;43.616;1.434;2022-08-21T08:16:11;36.60;99.90
14061;DHT22;7105;43.616;1.434;2022-08-21T08:18:36;38.20;99.90
14061;DHT22;7105;43.616;1.434;2022-08-21T08:21:04;36.30;99.90
14061;DHT22;7105;43.616;1.434;2022-08-21T08:23:30;36.20;99.90
14061;DHT22;7105;43.616;1.434;2022-08-21T08:25:57;34.60;99.90
14061;DHT22;7105;43.616;1.434;2022-08-21T08:28:23;31.90;99.90
14061;DHT22;7105;43.616;1.434;2022-08-21T08:30:49;32.40;99.90
14061;DHT22;7105;43.616;1.434;2022-08-21T08:33:16;34.80;99.90
14061;DHT22;7105;43.616;1.434;2022-08-21T08:35:46;36.30;99.90
14061;DHT22;7105;43.616;1.434;2022-08-21T08:38:12;36.20;99.90
14061;DHT22;7105;43.616;1.434;2022-08-21T08:40:52;35.60;99.90
14061;DHT22;7105;43.616;1.434;2022-08-21T08:43:18;37.90;99.90
14061;DHT22;7105;43.616;1.434;2022-08-21T08:45:48;37.60;99.90
14061;DHT22;7105;43.616;1.434;2022-08-21T08:48:51;36.90;99.90
14061;DHT22;7105;43.616;1.434;2022-08-21T08:51:25;37.90;99.90
14061;DHT22;7105;43.616;1.434;2022-08-21T08:54:00;37.90;99.90
14061;DHT22;7105;43.616;1.434;2022-08-21T08:56:33;36.10;99.90
14061;DHT22;7105;43.616;1.434;2022-08-21T08:59:07;34.40;99.90
14061;DHT22;7105;43.616;1.434;2022-08-21T09:01:34;34.10;99.90
14061;DHT22;7105;43.616;1.434;2022-08-21T09:04:00;33.90;99.90
14061;DHT22;7105;43.616;1.434;2022-08-21T09:10:12;36.40;99.90
14061;DHT22;7105;43.616;1.434;2022-08-21T09:18:02;31.20;99.90
14061;DHT22;7105;43.616;1.434;2022-08-21T09:20:46;30.20;99.90
14061;DHT22;7105;43.616;1.434;2022-08-21T09:26:08;29.30;99.90
14061;DHT22;7105;43.616;1.434;2022-08-21T09:28:37;30.20;99.90
14061;DHT22;7105;43.616;1.434;2022-08-21T09:31:08;30.40;99.90
14061;DHT22;7105;43.616;1.434;2022-08-21T09:33:37;29.70;99.90
14061;DHT22;7105;43.616;1.434;2022-08-21T09:36:03;29.80;99.90
14061;DHT22;7105;43.616;1.434;2022-08-21T09:38:32;29.60;99.90
14061;DHT22;7105;43.616;1.434;2022-08-21T09:41:04;29.10;99.90
14061;DHT22;7105;43.616;1.434;2022-08-21T09:43:31;28.80;99.90
14061;DHT22;7105;43.616;1.434;2022-08-21T09:46:07;28.60;99.90
14061;DHT22;7105;43.616;1.434;2022-08-21T09:48:44;28.40;99.90
14061;DHT22;7105;43.616;1.434;2022-08-21T09:51:36;28.10;99.90
14061;DHT22;7105;43.616;1.434;2022-08-21T09:56:34;28.50;99.90
14061;DHT22;7105;43.616;1.434;2022-08-21T09:59:26;28.90;99.90
14061;DHT22;7105;43.616;1.434;2022-08-21T10:01:56;28.50;99.90
14061;DHT22;7105;43.616;1.434;2022-08-21T10:04:28;29.20;99.90
14061;DHT22;7105;43.616;1.434;2022-08-21T10:06:54;29.30;99.90
14061;DHT22;7105;43.616;1.434;2022-08-21T10:09:20;28.80;99.90
14061;DHT22;7105;43.616;1.434;2022-08-21T10:14:57;28.90;99.90
14061;DHT22;7105;43.616;1.434;2022-08-21T10:20:23;28.20;99.90
14061;DHT22;7105;43.616;1.434;2022-08-21T10:28:22;29.50;99.90
14061;DHT22;7105;43.616;1.434;2022-08-21T10:31:27;29.50;99.90
14061;DHT22;7105;43.616;1.434;2022-08-21T10:34:11;29.70;99.90
14061;DHT22;7105;43.616;1.434;2022-08-21T10:37:10;29.40;99.90
14061;DHT22;7105;43.616;1.434;2022-08-21T10:39:49;29.50;99.90
14061;DHT22;7105;43.616;1.434;2022-08-21T10:42:30;29.10;99.90
14061;DHT22;7105;43.616;1.434;2022-08-21T10:47:35;29.10;99.90
14061;DHT22;7105;43.616;1.434;2022-08-21T10:55:25;28.60;99.90
14061;DHT22;7105;43.616;1.434;2022-08-21T10:57:57;28.10;99.90
14061;DHT22;7105;43.616;1.434;2022-08-21T11:01:07;27.60;99.90
14061;DHT22;7105;43.616;1.434;2022-08-21T11:03:41;27.80;99.90
14061;DHT22;7105;43.616;1.434;2022-08-21T11:06:15;28.20;99.90
14061;DHT22;7105;43.616;1.434;2022-08-21T11:08:46;28.50;99.90
14061;DHT22;7105;43.616;1.434;2022-08-21T11:11:22;29.10;99.90
14061;DHT22;7105;43.616;1.434;2022-08-21T11:16:46;29.00;99.90
14061;DHT22;7105;43.616;1.434;2022-08-21T11:19:19;29.10;99.90
14061;DHT22;7105;43.616;1.434;2022-08-21T11:22:13;29.20;99.90
14061;DHT22;7105;43.616;1.434;2022-08-21T11:27:54;28.80;99.90
14061;DHT22;7105;43.616;1.434;2022-08-21T11:30:21;28.80;99.90
14061;DHT22;7105;43.616;1.434;2022-08-21T11:36:22;29.60;99.90
14061;DHT22;7105;43.616;1.434;2022-08-21T11:38:56;29.80;99.90
14061;DHT22;7105;43.616;1.434;2022-08-21T11:42:00;29.80;99.90
14061;DHT22;7105;43.616;1.434;2022-08-21T11:50:17;29.70;99.90
14061;DHT22;7105;43.616;1.434;2022-08-21T11:52:53;29.80;99.90
14061;DHT22;7105;43.616;1.434;2022-08-21T11:58:12;29.10;99.90
14061;DHT22;7105;43.616;1.434;2022-08-21T12:00:44;29.80;99.90
14061;DHT22;7105;43.616;1.434;2022-08-21T12:03:17;30.10;99.90
14061;DHT22;7105;43.616;1.434;2022-08-21T12:05:56;29.60;99.90
14061;DHT22;7105;43.616;1.434;2022-08-21T12:08:37;29.10;99.90
14061;DHT22;7105;43.616;1.434;2022-08-21T12:13:36;29.40;99.90
14061;DHT22;7105;43.616;1.434;2022-08-21T12:16:32;29.60;99.90
14061;DHT22;7105;43.616;1.434;2022-08-21T12:19:13;29.30;99.90
14061;DHT22;7105;43.616;1.434;2022-08-21T12:27:39;29.90;99.90
14061;DHT22;7105;43.616;1.434;2022-08-21T12:30:20;29.30;99.90
14061;DHT22;7105;43.616;1.434;2022-08-21T12:35:24;29.00;99.90
14061;DHT22;7105;43.616;1.434;2022-08-21T12:38:07;28.90;99.90
14061;DHT22;7105;43.616;1.434;2022-08-21T12:40:41;29.00;99.90
14061;DHT22;7105;43.616;1.434;2022-08-21T12:43:14;28.90;99.90
14061;DHT22;7105;43.616;1.434;2022-08-21T12:45:44;28.80;99.90
14061;DHT22;7105;43.616;1.434;2022-08-21T12:51:04;28.80;99.90
14061;DHT22;7105;43.616;1.434;2022-08-21T12:53:44;29.00;99.90
14061;DHT22;7105;43.616;1.434;2022-08-21T12:56:14;29.20;99.90
14061;DHT22;7105;43.616;1.434;2022-08-21T12:58:45;29.00;99.90
14061;DHT22;7105;43.616;1.434;2022-08-21T13:03:45;29.00;99.90
14061;DHT22;7105;43.616;1.434;2022-08-21T13:06:17;29.10;99.90
14061;DHT22;7105;43.616;1.434;2022-08-21T13:08:45;29.20;99.90
14061;DHT22;7105;43.616;1.434;2022-08-21T13:11:16;29.30;99.90
14061;DHT22;7105;43.616;1.434;2022-08-21T13:13:43;29.70;99.90
14061;DHT22;7105;43.616;1.434;2022-08-21T13:16:09;29.90;99.90
14061;DHT22;7105;43.616;1.434;2022-08-21T13:18:39;30.30;99.90
14061;DHT22;7105;43.616;1.434;2022-08-21T13:21:16;29.90;99.90
14061;DHT22;7105;43.616;1.434;2022-08-21T13:23:42;29.90;99.90
14061;DHT22;7105;43.616;1.434;2022-08-21T13:26:21;30.40;99.90
14061;DHT22;7105;43.616;1.434;2022-08-21T13:28:48;30.10;99.90
14061;DHT22;7105;43.616;1.434;2022-08-21T13:31:24;30.20;99.90
14061;DHT22;7105;43.616;1.434;2022-08-21T13:33:53;29.60;99.90
14061;DHT22;7105;43.616;1.434;2022-08-21T13:36:31;29.60;99.90
14061;DHT22;7105;43.616;1.434;2022-08-21T13:38:57;29.40;99.90
14061;DHT22;7105;43.616;1.434;2022-08-21T13:41:27;29.60;99.90
14061;DHT22;7105;43.616;1.434;2022-08-21T13:44:13;29.60;99.90
14061;DHT22;7105;43.616;1.434;2022-08-21T13:46:39;29.70;99.90
14061;DHT22;7105;43.616;1.434;2022-08-21T13:49:06;29.80;99.90
14061;DHT22;7105;43.616;1.434;2022-08-21T13:51:33;29.50;99.90
14061;DHT22;7105;43.616;1.434;2022-08-21T13:54:00;29.70;99.90
14061;DHT22;7105;43.616;1.434;2022-08-21T13:56:32;29.90;99.90
14061;DHT22;7105;43.616;1.434;2022-08-21T13:58:59;29.70;99.90
14061;DHT22;7105;43.616;1.434;2022-08-21T14:03:57;29.70;99.90
14061;DHT22;7105;43.616;1.434;2022-08-21T14:06:27;29.90;99.90
14061;DHT22;7105;43.616;1.434;2022-08-21T14:08:55;29.70;99.90
14061;DHT22;7105;43.616;1.434;2022-08-21T14:11:22;29.20;99.90
14061;DHT22;7105;43.616;1.434;2022-08-21T14:13:58;29.40;99.90
14061;DHT22;7105;43.616;1.434;2022-08-21T14:16:40;29.30;99.90
14061;DHT22;7105;43.616;1.434;2022-08-21T14:19:28;29.30;99.90
14061;DHT22;7105;43.616;1.434;2022-08-21T14:22:01;29.10;99.90
14061;DHT22;7105;43.616;1.434;2022-08-21T14:24:29;29.00;99.90
14061;DHT22;7105;43.616;1.434;2022-08-21T14:27:06;29.30;99.90
14061;DHT22;7105;43.616;1.434;2022-08-21T14:29:38;29.20;99.90
14061;DHT22;7105;43.616;1.434;2022-08-21T14:32:23;29.60;99.90
14061;DHT22;7105;43.616;1.434;2022-08-21T14:34:50;29.70;99.90
14061;DHT22;7105;43.616;1.434;2022-08-21T14:37:15;29.50;99.90
14061;DHT22;7105;43.616;1.434;2022-08-21T14:39:41;29.00;99.90
14061;DHT22;7105;43.616;1.434;2022-08-21T14:42:07;28.80;99.90
14061;DHT22;7105;43.616;1.434;2022-08-21T14:44:33;28.80;99.90
14061;DHT22;7105;43.616;1.434;2022-08-21T14:46:59;29.10;99.90
14061;DHT22;7105;43.616;1.434;2022-08-21T14:49:26;29.10;99.90
14061;DHT22;7105;43.616;1.434;2022-08-21T14:51:53;29.40;99.90
14061;DHT22;7105;43.616;1.434;2022-08-21T14:54:26;29.40;99.90
14061;DHT22;7105;43.616;1.434;2022-08-21T14:56:52;29.30;99.90
14061;DHT22;7105;43.616;1.434;2022-08-21T14:59:17;29.10;99.90
14061;DHT22;7105;43.616;1.434;2022-08-21T15:01:45;29.00;99.90
14061;DHT22;7105;43.616;1.434;2022-08-21T15:04:10;29.20;99.90
14061;DHT22;7105;43.616;1.434;2022-08-21T15:06:36;29.10;99.90
14061;DHT22;7105;43.616;1.434;2022-08-21T15:09:02;29.40;99.90
14061;DHT22;7105;43.616;1.434;2022-08-21T15:11:30;29.30;99.90
14061;DHT22;7105;43.616;1.434;2022-08-21T15:14:00;29.30;99.90
14061;DHT22;7105;43.616;1.434;2022-08-21T15:16:28;29.40;99.90
14061;DHT22;7105;43.616;1.434;2022-08-21T15:18:54;29.40;99.90
14061;DHT22;7105;43.616;1.434;2022-08-21T15:21:19;29.00;99.90
14061;DHT22;7105;43.616;1.434;2022-08-21T15:23:45;28.80;99.90
14061;DHT22;7105;43.616;1.434;2022-08-21T15:26:11;28.70;99.90
14061;DHT22;7105;43.616;1.434;2022-08-21T15:28:37;28.70;99.90
14061;DHT22;7105;43.616;1.434;2022-08-21T15:31:04;28.90;99.90
14061;DHT22;7105;43.616;1.434;2022-08-21T15:33:30;29.00;99.90
14061;DHT22;7105;43.616;1.434;2022-08-21T15:35:56;29.10;99.90
14061;DHT22;7105;43.616;1.434;2022-08-21T15:38:22;29.00;99.90
14061;DHT22;7105;43.616;1.434;2022-08-21T15:40:48;28.90;99.90
14061;DHT22;7105;43.616;1.434;2022-08-21T15:43:34;28.90;99.90
14061;DHT22;7105;43.616;1.434;2022-08-21T15:46:01;29.00;99.90
14061;DHT22;7105;43.616;1.434;2022-08-21T15:48:27;28.70;99.90
14061;DHT22;7105;43.616;1.434;2022-08-21T15:50:53;28.80;99.90
14061;DHT22;7105;43.616;1.434;2022-08-21T15:53:19;28.80;99.90
14061;DHT22;7105;43.616;1.434;2022-08-21T15:55:45;28.80;99.90
14061;DHT22;7105;43.616;1.434;2022-08-21T15:58:15;29.10;99.90
14061;DHT22;7105;43.616;1.434;2022-08-21T16:00:42;29.00;99.90
14061;DHT22;7105;43.616;1.434;2022-08-21T16:03:12;28.70;99.90
14061;DHT22;7105;43.616;1.434;2022-08-21T16:05:40;28.70;99.90
14061;DHT22;7105;43.616;1.434;2022-08-21T16:08:06;28.80;99.90
14061;DHT22;7105;43.616;1.434;2022-08-21T16:10:32;28.80;99.90
14061;DHT22;7105;43.616;1.434;2022-08-21T16:13:03;29.00;99.90
14061;DHT22;7105;43.616;1.434;2022-08-21T16:15:29;29.10;99.90
14061;DHT22;7105;43.616;1.434;2022-08-21T16:17:55;29.10;99.90
14061;DHT22;7105;43.616;1.434;2022-08-21T16:20:25;28.70;99.90
14061;DHT22;7105;43.616;1.434;2022-08-21T16:22:53;28.60;99.90
14061;DHT22;7105;43.616;1.434;2022-08-21T16:25:19;28.70;99.90
14061;DHT22;7105;43.616;1.434;2022-08-21T16:27:55;28.40;99.90
14061;DHT22;7105;43.616;1.434;2022-08-21T16:30:22;28.50;99.90
14061;DHT22;7105;43.616;1.434;2022-08-21T16:32:49;28.60;99.90
14061;DHT22;7105;43.616;1.434;2022-08-21T16:35:17;28.70;99.90
14061;DHT22;7105;43.616;1.434;2022-08-21T16:37:44;28.60;99.90
14061;DHT22;7105;43.616;1.434;2022-08-21T16:40:10;28.40;99.90
14061;DHT22;7105;43.616;1.434;2022-08-21T16:42:37;28.50;99.90
14061;DHT22;7105;43.616;1.434;2022-08-21T16:45:12;28.50;99.90
14061;DHT22;7105;43.616;1.434;2022-08-21T16:47:39;28.50;99.90
14061;DHT22;7105;43.616;1.434;2022-08-21T16:50:06;28.30;99.90
14061;DHT22;7105;43.616;1.434;2022-08-21T16:52:32;28.20;99.90
14061;DHT22;7105;43.616;1.434;2022-08-21T16:54:58;28.20;99.90
14061;DHT22;7105;43.616;1.434;2022-08-21T16:57:24;28.20;99.90
14061;DHT22;7105;43.616;1.434;2022-08-21T16:59:51;28.00;99.90
14061;DHT22;7105;43.616;1.434;2022-08-21T17:02:32;28.10;99.90
14061;DHT22;7105;43.616;1.434;2022-08-21T17:04:59;28.20;99.90
14061;DHT22;7105;43.616;1.434;2022-08-21T17:07:26;28.20;99.90
14061;DHT22;7105;43.616;1.434;2022-08-21T17:09:52;28.30;99.90